sensor_id;sensor_type;location;lat;lon;timestamp;P1;durP1;ratioP1;P2;durP2;ratioP2
18649;SDS011;9454;53.516;10.478;2023-03-11T00:00:28;5.32;;;2.13;;
18649;SDS011;9454;53.516;10.478;2023-03-11T00:03:32;7.05;;;2.58;;
18649;SDS011;9454;53.516;10.478;2023-03-11T00:06:35;2.28;;;1.85;;
18649;SDS011;9454;53.516;10.478;2023-03-11T00:09:38;4.38;;;2.28;;
18649;SDS011;9454;53.516;10.478;2023-03-11T00:12:42;3.33;;;2.17;;
18649;SDS011;9454;53.516;10.478;2023-03-11T00:15:47;3.08;;;2.30;;
18649;SDS011;9454;53.516;10.478;2023-03-11T00:18:50;4.28;;;2.22;;
18649;SDS011;9454;53.516;10.478;2023-03-11T00:21:54;4.13;;;2.63;;
18649;SDS011;9454;53.516;10.478;2023-03-11T00:24:58;4.43;;;2.85;;
18649;SDS011;9454;53.516;10.478;2023-03-11T00:28:02;3.10;;;1.92;;
18649;SDS011;9454;53.516;10.478;2023-03-11T00:31:07;5.10;;;2.65;;
18649;SDS011;9454;53.516;10.478;2023-03-11T00:34:10;5.40;;;2.83;;
18649;SDS011;9454;53.516;10.478;2023-03-11T00:37:13;6.40;;;2.83;;
18649;SDS011;9454;53.516;10.478;2023-03-11T00:40:18;3.78;;;2.58;;
18649;SDS011;9454;53.516;10.478;2023-03-11T00:43:21;5.68;;;2.65;;
18649;SDS011;9454;53.516;10.478;2023-03-11T00:46:26;4.95;;;2.70;;
18649;SDS011;9454;53.516;10.478;2023-03-11T00:49:31;5.47;;;2.80;;
18649;SDS011;9454;53.516;10.478;2023-03-11T00:52:34;5.07;;;2.47;;
18649;SDS011;9454;53.516;10.478;2023-03-11T00:55:39;4.25;;;2.38;;
18649;SDS011;9454;53.516;10.478;2023-03-11T00:58:45;3.25;;;2.13;;
18649;SDS011;9454;53.516;10.478;2023-03-11T01:01:50;4.30;;;1.88;;
18649;SDS011;9454;53.516;10.478;2023-03-11T01:04:55;4.93;;;2.83;;
18649;SDS011;9454;53.516;10.478;2023-03-11T01:07:58;4.90;;;2.17;;
18649;SDS011;9454;53.516;10.478;2023-03-11T01:11:02;5.78;;;2.95;;
18649;SDS011;9454;53.516;10.478;2023-03-11T01:14:05;4.45;;;2.95;;
18649;SDS011;9454;53.516;10.478;2023-03-11T01:17:10;4.43;;;3.08;;
18649;SDS011;9454;53.516;10.478;2023-03-11T01:20:15;4.63;;;3.05;;
18649;SDS011;9454;53.516;10.478;2023-03-11T01:23:19;4.65;;;2.70;;
18649;SDS011;9454;53.516;10.478;2023-03-11T01:26:22;8.07;;;2.60;;
18649;SDS011;9454;53.516;10.478;2023-03-11T01:29:29;5.45;;;2.40;;
18649;SDS011;9454;53.516;10.478;2023-03-11T01:32:34;6.45;;;2.90;;
18649;SDS011;9454;53.516;10.478;2023-03-11T01:35:37;6.65;;;2.00;;
18649;SDS011;9454;53.516;10.478;2023-03-11T01:38:42;3.28;;;2.42;;
18649;SDS011;9454;53.516;10.478;2023-03-11T01:41:45;6.18;;;3.35;;
18649;SDS011;9454;53.516;10.478;2023-03-11T01:44:49;4.95;;;2.72;;
18649;SDS011;9454;53.516;10.478;2023-03-11T01:47:54;5.75;;;2.85;;
18649;SDS011;9454;53.516;10.478;2023-03-11T01:50:57;5.68;;;3.13;;
18649;SDS011;9454;53.516;10.478;2023-03-11T01:54:01;8.15;;;2.83;;
18649;SDS011;9454;53.516;10.478;2023-03-11T01:57:07;5.50;;;2.78;;
18649;SDS011;9454;53.516;10.478;2023-03-11T02:00:12;6.50;;;3.58;;
18649;SDS011;9454;53.516;10.478;2023-03-11T02:03:20;5.30;;;3.25;;
18649;SDS011;9454;53.516;10.478;2023-03-11T02:06:25;6.70;;;3.88;;
18649;SDS011;9454;53.516;10.478;2023-03-11T02:09:29;4.95;;;3.03;;
18649;SDS011;9454;53.516;10.478;2023-03-11T02:12:33;6.38;;;3.45;;
18649;SDS011;9454;53.516;10.478;2023-03-11T02:15:37;7.85;;;3.90;;
18649;SDS011;9454;53.516;10.478;2023-03-11T02:18:42;5.30;;;3.30;;
18649;SDS011;9454;53.516;10.478;2023-03-11T02:21:46;7.60;;;4.22;;
18649;SDS011;9454;53.516;10.478;2023-03-11T02:24:53;5.45;;;3.33;;
18649;SDS011;9454;53.516;10.478;2023-03-11T02:27:59;4.93;;;3.42;;
18649;SDS011;9454;53.516;10.478;2023-03-11T02:31:03;4.68;;;3.42;;
18649;SDS011;9454;53.516;10.478;2023-03-11T02:34:11;7.10;;;3.55;;
18649;SDS011;9454;53.516;10.478;2023-03-11T02:37:17;6.97;;;3.80;;
18649;SDS011;9454;53.516;10.478;2023-03-11T02:40:35;4.15;;;3.05;;
18649;SDS011;9454;53.516;10.478;2023-03-11T02:43:42;8.77;;;4.05;;
18649;SDS011;9454;53.516;10.478;2023-03-11T02:46:49;5.93;;;3.58;;
18649;SDS011;9454;53.516;10.478;2023-03-11T02:49:53;4.25;;;2.60;;
18649;SDS011;9454;53.516;10.478;2023-03-11T02:52:58;5.40;;;3.13;;
18649;SDS011;9454;53.516;10.478;2023-03-11T02:56:01;5.25;;;2.88;;
18649;SDS011;9454;53.516;10.478;2023-03-11T02:59:08;5.60;;;3.63;;
18649;SDS011;9454;53.516;10.478;2023-03-11T03:02:12;4.82;;;3.42;;
18649;SDS011;9454;53.516;10.478;2023-03-11T03:05:15;6.20;;;3.25;;
18649;SDS011;9454;53.516;10.478;2023-03-11T03:08:19;6.75;;;3.80;;
18649;SDS011;9454;53.516;10.478;2023-03-11T03:11:22;6.63;;;2.95;;
18649;SDS011;9454;53.516;10.478;2023-03-11T03:14:27;7.35;;;3.92;;
18649;SDS011;9454;53.516;10.478;2023-03-11T03:17:32;4.60;;;2.65;;
18649;SDS011;9454;53.516;10.478;2023-03-11T03:20:35;7.38;;;3.45;;
18649;SDS011;9454;53.516;10.478;2023-03-11T03:23:39;7.45;;;4.35;;
18649;SDS011;9454;53.516;10.478;2023-03-11T03:26:43;3.60;;;2.97;;
18649;SDS011;9454;53.516;10.478;2023-03-11T03:29:48;9.82;;;3.95;;
18649;SDS011;9454;53.516;10.478;2023-03-11T03:32:52;6.32;;;3.15;;
18649;SDS011;9454;53.516;10.478;2023-03-11T03:35:55;5.32;;;3.53;;
18649;SDS011;9454;53.516;10.478;2023-03-11T03:39:06;5.38;;;3.60;;
18649;SDS011;9454;53.516;10.478;2023-03-11T03:42:11;6.18;;;3.08;;
18649;SDS011;9454;53.516;10.478;2023-03-11T03:45:16;4.85;;;3.08;;
18649;SDS011;9454;53.516;10.478;2023-03-11T03:48:21;5.63;;;3.15;;
18649;SDS011;9454;53.516;10.478;2023-03-11T03:51:25;9.68;;;4.53;;
18649;SDS011;9454;53.516;10.478;2023-03-11T03:54:35;5.20;;;2.92;;
18649;SDS011;9454;53.516;10.478;2023-03-11T03:57:39;8.32;;;3.72;;
18649;SDS011;9454;53.516;10.478;2023-03-11T04:00:47;7.43;;;3.65;;
18649;SDS011;9454;53.516;10.478;2023-03-11T04:03:51;7.90;;;3.78;;
18649;SDS011;9454;53.516;10.478;2023-03-11T04:06:54;8.85;;;3.55;;
18649;SDS011;9454;53.516;10.478;2023-03-11T04:09:58;5.53;;;3.40;;
18649;SDS011;9454;53.516;10.478;2023-03-11T04:13:05;11.55;;;3.42;;
18649;SDS011;9454;53.516;10.478;2023-03-11T04:16:11;6.72;;;3.40;;
18649;SDS011;9454;53.516;10.478;2023-03-11T04:19:17;7.30;;;3.80;;
18649;SDS011;9454;53.516;10.478;2023-03-11T04:22:21;7.07;;;3.30;;
18649;SDS011;9454;53.516;10.478;2023-03-11T04:25:24;9.43;;;4.05;;
18649;SDS011;9454;53.516;10.478;2023-03-11T04:28:29;8.23;;;3.70;;
18649;SDS011;9454;53.516;10.478;2023-03-11T04:31:34;5.22;;;3.50;;
18649;SDS011;9454;53.516;10.478;2023-03-11T04:34:39;5.53;;;3.13;;
18649;SDS011;9454;53.516;10.478;2023-03-11T04:37:44;10.60;;;3.40;;
18649;SDS011;9454;53.516;10.478;2023-03-11T04:40:47;8.10;;;3.45;;
18649;SDS011;9454;53.516;10.478;2023-03-11T04:43:51;4.68;;;3.22;;
18649;SDS011;9454;53.516;10.478;2023-03-11T04:46:56;5.90;;;2.90;;
18649;SDS011;9454;53.516;10.478;2023-03-11T04:50:00;4.30;;;2.90;;
18649;SDS011;9454;53.516;10.478;2023-03-11T04:53:04;4.75;;;2.97;;
18649;SDS011;9454;53.516;10.478;2023-03-11T04:56:08;4.53;;;2.60;;
18649;SDS011;9454;53.516;10.478;2023-03-11T04:59:13;5.22;;;2.88;;
18649;SDS011;9454;53.516;10.478;2023-03-11T05:02:19;5.53;;;2.92;;
18649;SDS011;9454;53.516;10.478;2023-03-11T05:05:28;7.90;;;3.10;;
18649;SDS011;9454;53.516;10.478;2023-03-11T05:08:31;4.28;;;2.78;;
18649;SDS011;9454;53.516;10.478;2023-03-11T05:11:35;5.05;;;2.53;;
18649;SDS011;9454;53.516;10.478;2023-03-11T05:14:38;4.40;;;2.45;;
18649;SDS011;9454;53.516;10.478;2023-03-11T05:17:43;5.22;;;3.45;;
18649;SDS011;9454;53.516;10.478;2023-03-11T05:20:47;5.18;;;2.92;;
18649;SDS011;9454;53.516;10.478;2023-03-11T05:23:54;6.80;;;3.20;;
18649;SDS011;9454;53.516;10.478;2023-03-11T05:26:58;4.80;;;2.92;;
18649;SDS011;9454;53.516;10.478;2023-03-11T05:30:04;4.63;;;2.67;;
18649;SDS011;9454;53.516;10.478;2023-03-11T05:33:11;5.47;;;2.78;;
18649;SDS011;9454;53.516;10.478;2023-03-11T05:36:15;4.63;;;3.03;;
18649;SDS011;9454;53.516;10.478;2023-03-11T05:39:19;4.35;;;2.45;;
18649;SDS011;9454;53.516;10.478;2023-03-11T05:42:23;6.75;;;3.30;;
18649;SDS011;9454;53.516;10.478;2023-03-11T05:45:28;5.45;;;2.72;;
18649;SDS011;9454;53.516;10.478;2023-03-11T05:48:35;8.20;;;3.22;;
18649;SDS011;9454;53.516;10.478;2023-03-11T05:51:39;5.00;;;3.30;;
18649;SDS011;9454;53.516;10.478;2023-03-11T05:54:43;4.93;;;3.15;;
18649;SDS011;9454;53.516;10.478;2023-03-11T05:57:49;6.63;;;3.08;;
18649;SDS011;9454;53.516;10.478;2023-03-11T06:00:53;6.13;;;2.65;;
18649;SDS011;9454;53.516;10.478;2023-03-11T06:03:58;10.07;;;3.10;;
18649;SDS011;9454;53.516;10.478;2023-03-11T06:07:02;5.78;;;3.47;;
18649;SDS011;9454;53.516;10.478;2023-03-11T06:10:10;9.30;;;3.53;;
18649;SDS011;9454;53.516;10.478;2023-03-11T06:13:14;5.13;;;2.70;;
18649;SDS011;9454;53.516;10.478;2023-03-11T06:16:24;5.88;;;3.25;;
18649;SDS011;9454;53.516;10.478;2023-03-11T06:19:33;6.00;;;3.33;;
18649;SDS011;9454;53.516;10.478;2023-03-11T06:22:36;5.88;;;3.08;;
18649;SDS011;9454;53.516;10.478;2023-03-11T06:25:41;3.75;;;2.60;;
18649;SDS011;9454;53.516;10.478;2023-03-11T06:28:45;4.93;;;3.30;;
18649;SDS011;9454;53.516;10.478;2023-03-11T06:31:49;11.68;;;3.05;;
18649;SDS011;9454;53.516;10.478;2023-03-11T06:34:54;5.18;;;3.10;;
18649;SDS011;9454;53.516;10.478;2023-03-11T06:37:58;7.05;;;3.33;;
18649;SDS011;9454;53.516;10.478;2023-03-11T06:41:02;7.80;;;3.65;;
18649;SDS011;9454;53.516;10.478;2023-03-11T06:44:08;6.55;;;3.45;;
18649;SDS011;9454;53.516;10.478;2023-03-11T06:47:13;6.18;;;3.00;;
18649;SDS011;9454;53.516;10.478;2023-03-11T06:50:18;6.82;;;3.40;;
18649;SDS011;9454;53.516;10.478;2023-03-11T06:53:24;6.65;;;3.40;;
18649;SDS011;9454;53.516;10.478;2023-03-11T06:56:28;4.10;;;2.70;;
18649;SDS011;9454;53.516;10.478;2023-03-11T06:59:37;7.40;;;4.00;;
18649;SDS011;9454;53.516;10.478;2023-03-11T07:02:41;8.98;;;3.05;;
18649;SDS011;9454;53.516;10.478;2023-03-11T07:05:50;4.88;;;2.70;;
18649;SDS011;9454;53.516;10.478;2023-03-11T07:08:54;8.05;;;3.60;;
18649;SDS011;9454;53.516;10.478;2023-03-11T07:11:58;5.18;;;2.75;;
18649;SDS011;9454;53.516;10.478;2023-03-11T07:15:08;6.65;;;3.40;;
18649;SDS011;9454;53.516;10.478;2023-03-11T07:18:12;4.72;;;3.13;;
18649;SDS011;9454;53.516;10.478;2023-03-11T07:21:17;6.10;;;3.50;;
18649;SDS011;9454;53.516;10.478;2023-03-11T07:24:21;5.82;;;3.13;;
18649;SDS011;9454;53.516;10.478;2023-03-11T07:27:26;4.65;;;2.78;;
18649;SDS011;9454;53.516;10.478;2023-03-11T07:30:29;5.32;;;3.35;;
18649;SDS011;9454;53.516;10.478;2023-03-11T07:33:34;6.25;;;3.33;;
18649;SDS011;9454;53.516;10.478;2023-03-11T07:36:40;6.93;;;3.05;;
18649;SDS011;9454;53.516;10.478;2023-03-11T07:39:43;6.68;;;3.30;;
18649;SDS011;9454;53.516;10.478;2023-03-11T07:42:47;11.70;;;3.70;;
18649;SDS011;9454;53.516;10.478;2023-03-11T07:46:00;7.32;;;3.15;;
18649;SDS011;9454;53.516;10.478;2023-03-11T07:49:04;5.10;;;2.72;;
18649;SDS011;9454;53.516;10.478;2023-03-11T07:52:09;5.60;;;3.30;;
18649;SDS011;9454;53.516;10.478;2023-03-11T07:55:12;8.20;;;3.60;;
18649;SDS011;9454;53.516;10.478;2023-03-11T07:58:16;6.28;;;2.85;;
18649;SDS011;9454;53.516;10.478;2023-03-11T08:01:21;5.28;;;3.22;;
18649;SDS011;9454;53.516;10.478;2023-03-11T08:04:24;10.35;;;3.17;;
18649;SDS011;9454;53.516;10.478;2023-03-11T08:07:31;5.38;;;3.33;;
18649;SDS011;9454;53.516;10.478;2023-03-11T08:10:35;4.50;;;3.05;;
18649;SDS011;9454;53.516;10.478;2023-03-11T08:13:39;4.72;;;2.85;;
18649;SDS011;9454;53.516;10.478;2023-03-11T08:16:42;4.50;;;2.45;;
18649;SDS011;9454;53.516;10.478;2023-03-11T08:19:47;5.07;;;3.05;;
18649;SDS011;9454;53.516;10.478;2023-03-11T08:22:52;4.70;;;3.05;;
18649;SDS011;9454;53.516;10.478;2023-03-11T08:26:01;6.07;;;2.70;;
18649;SDS011;9454;53.516;10.478;2023-03-11T08:29:05;7.50;;;3.05;;
18649;SDS011;9454;53.516;10.478;2023-03-11T08:32:08;7.65;;;3.08;;
18649;SDS011;9454;53.516;10.478;2023-03-11T08:35:11;4.78;;;2.53;;
18649;SDS011;9454;53.516;10.478;2023-03-11T08:38:17;4.28;;;2.67;;
18649;SDS011;9454;53.516;10.478;2023-03-11T08:41:21;4.43;;;2.55;;
18649;SDS011;9454;53.516;10.478;2023-03-11T08:44:24;9.00;;;2.70;;
18649;SDS011;9454;53.516;10.478;2023-03-11T08:47:27;6.07;;;2.10;;
18649;SDS011;9454;53.516;10.478;2023-03-11T08:50:31;1.83;;;1.30;;
18649;SDS011;9454;53.516;10.478;2023-03-11T08:53:49;4.50;;;2.20;;
18649;SDS011;9454;53.516;10.478;2023-03-11T08:56:52;5.45;;;2.10;;
18649;SDS011;9454;53.516;10.478;2023-03-11T08:59:56;4.72;;;2.53;;
18649;SDS011;9454;53.516;10.478;2023-03-11T09:02:59;3.42;;;2.30;;
18649;SDS011;9454;53.516;10.478;2023-03-11T09:06:03;5.35;;;2.45;;
18649;SDS011;9454;53.516;10.478;2023-03-11T09:09:09;2.63;;;1.80;;
18649;SDS011;9454;53.516;10.478;2023-03-11T09:12:12;2.22;;;1.40;;
18649;SDS011;9454;53.516;10.478;2023-03-11T09:15:16;5.05;;;1.90;;
18649;SDS011;9454;53.516;10.478;2023-03-11T09:18:19;4.95;;;2.22;;
18649;SDS011;9454;53.516;10.478;2023-03-11T09:21:23;9.57;;;2.35;;
18649;SDS011;9454;53.516;10.478;2023-03-11T09:24:28;19.50;;;3.67;;
18649;SDS011;9454;53.516;10.478;2023-03-11T09:27:31;3.88;;;2.03;;
18649;SDS011;9454;53.516;10.478;2023-03-11T09:30:35;4.25;;;2.05;;
18649;SDS011;9454;53.516;10.478;2023-03-11T09:33:39;9.10;;;3.42;;
18649;SDS011;9454;53.516;10.478;2023-03-11T09:36:43;6.68;;;2.80;;
18649;SDS011;9454;53.516;10.478;2023-03-11T09:39:48;4.60;;;2.28;;
18649;SDS011;9454;53.516;10.478;2023-03-11T09:42:53;5.55;;;2.28;;
18649;SDS011;9454;53.516;10.478;2023-03-11T09:46:00;3.90;;;1.52;;
18649;SDS011;9454;53.516;10.478;2023-03-11T09:49:08;4.65;;;2.08;;
18649;SDS011;9454;53.516;10.478;2023-03-11T09:52:15;2.92;;;1.85;;
18649;SDS011;9454;53.516;10.478;2023-03-11T09:55:36;5.50;;;1.70;;
18649;SDS011;9454;53.516;10.478;2023-03-11T09:58:41;2.35;;;1.80;;
18649;SDS011;9454;53.516;10.478;2023-03-11T10:01:45;3.83;;;2.10;;
18649;SDS011;9454;53.516;10.478;2023-03-11T10:04:52;2.67;;;1.70;;
18649;SDS011;9454;53.516;10.478;2023-03-11T10:07:59;2.85;;;1.75;;
18649;SDS011;9454;53.516;10.478;2023-03-11T10:11:08;3.03;;;1.30;;
18649;SDS011;9454;53.516;10.478;2023-03-11T10:14:18;3.22;;;1.70;;
18649;SDS011;9454;53.516;10.478;2023-03-11T10:17:30;4.57;;;1.92;;
18649;SDS011;9454;53.516;10.478;2023-03-11T10:20:39;4.22;;;1.38;;
18649;SDS011;9454;53.516;10.478;2023-03-11T10:23:49;2.65;;;1.38;;
18649;SDS011;9454;53.516;10.478;2023-03-11T10:26:58;3.70;;;1.63;;
18649;SDS011;9454;53.516;10.478;2023-03-11T10:30:05;2.17;;;1.27;;
18649;SDS011;9454;53.516;10.478;2023-03-11T10:33:12;2.83;;;1.70;;
18649;SDS011;9454;53.516;10.478;2023-03-11T10:36:22;3.50;;;1.58;;
18649;SDS011;9454;53.516;10.478;2023-03-11T10:39:27;2.60;;;1.38;;
18649;SDS011;9454;53.516;10.478;2023-03-11T10:42:32;3.65;;;1.48;;
18649;SDS011;9454;53.516;10.478;2023-03-11T10:45:37;3.45;;;1.60;;
18649;SDS011;9454;53.516;10.478;2023-03-11T10:48:42;2.17;;;1.30;;
18649;SDS011;9454;53.516;10.478;2023-03-11T10:51:46;2.08;;;1.25;;
18649;SDS011;9454;53.516;10.478;2023-03-11T10:54:57;4.00;;;1.15;;
18649;SDS011;9454;53.516;10.478;2023-03-11T10:58:06;2.53;;;1.38;;
18649;SDS011;9454;53.516;10.478;2023-03-11T11:01:12;4.00;;;1.20;;
18649;SDS011;9454;53.516;10.478;2023-03-11T11:04:22;2.38;;;1.35;;
18649;SDS011;9454;53.516;10.478;2023-03-11T11:07:28;1.30;;;1.08;;
18649;SDS011;9454;53.516;10.478;2023-03-11T11:10:33;1.70;;;1.15;;
18649;SDS011;9454;53.516;10.478;2023-03-11T11:13:38;4.80;;;1.02;;
18649;SDS011;9454;53.516;10.478;2023-03-11T11:16:41;6.82;;;1.00;;
18649;SDS011;9454;53.516;10.478;2023-03-11T11:19:45;2.60;;;1.27;;
18649;SDS011;9454;53.516;10.478;2023-03-11T11:22:51;2.60;;;1.20;;
18649;SDS011;9454;53.516;10.478;2023-03-11T11:25:56;5.50;;;1.00;;
18649;SDS011;9454;53.516;10.478;2023-03-11T11:29:12;2.60;;;1.27;;
18649;SDS011;9454;53.516;10.478;2023-03-11T11:32:17;2.70;;;1.38;;
18649;SDS011;9454;53.516;10.478;2023-03-11T11:35:22;2.95;;;1.33;;
18649;SDS011;9454;53.516;10.478;2023-03-11T11:38:26;4.57;;;1.30;;
18649;SDS011;9454;53.516;10.478;2023-03-11T11:41:30;1.00;;;0.75;;
18649;SDS011;9454;53.516;10.478;2023-03-11T11:44:36;1.25;;;0.93;;
18649;SDS011;9454;53.516;10.478;2023-03-11T11:47:40;3.30;;;1.00;;
18649;SDS011;9454;53.516;10.478;2023-03-11T11:50:47;1.30;;;0.93;;
18649;SDS011;9454;53.516;10.478;2023-03-11T11:53:54;2.22;;;1.00;;
18649;SDS011;9454;53.516;10.478;2023-03-11T11:56:58;4.00;;;1.08;;
18649;SDS011;9454;53.516;10.478;2023-03-11T12:00:05;2.50;;;1.30;;
18649;SDS011;9454;53.516;10.478;2023-03-11T12:03:29;1.70;;;0.73;;
18649;SDS011;9454;53.516;10.478;2023-03-11T12:06:37;3.50;;;1.02;;
18649;SDS011;9454;53.516;10.478;2023-03-11T12:09:45;3.80;;;1.10;;
18649;SDS011;9454;53.516;10.478;2023-03-11T12:12:59;4.13;;;1.00;;
18649;SDS011;9454;53.516;10.478;2023-03-11T12:16:10;7.28;;;0.95;;
18649;SDS011;9454;53.516;10.478;2023-03-11T12:19:17;2.00;;;1.00;;
18649;SDS011;9454;53.516;10.478;2023-03-11T12:22:29;3.13;;;1.00;;
18649;SDS011;9454;53.516;10.478;2023-03-11T12:25:40;3.90;;;0.82;;
18649;SDS011;9454;53.516;10.478;2023-03-11T12:28:45;3.90;;;1.08;;
18649;SDS011;9454;53.516;10.478;2023-03-11T12:31:52;3.00;;;0.85;;
18649;SDS011;9454;53.516;10.478;2023-03-11T12:34:59;2.20;;;1.00;;
18649;SDS011;9454;53.516;10.478;2023-03-11T12:38:06;0.93;;;0.80;;
18649;SDS011;9454;53.516;10.478;2023-03-11T12:41:27;2.65;;;0.68;;
18649;SDS011;9454;53.516;10.478;2023-03-11T12:44:31;3.42;;;0.95;;
18649;SDS011;9454;53.516;10.478;2023-03-11T12:47:36;2.58;;;0.80;;
18649;SDS011;9454;53.516;10.478;2023-03-11T12:50:40;1.42;;;0.80;;
18649;SDS011;9454;53.516;10.478;2023-03-11T12:53:45;2.85;;;0.98;;
18649;SDS011;9454;53.516;10.478;2023-03-11T12:56:49;1.00;;;0.88;;
18649;SDS011;9454;53.516;10.478;2023-03-11T13:00:00;3.03;;;0.90;;
18649;SDS011;9454;53.516;10.478;2023-03-11T13:03:13;6.90;;;0.75;;
18649;SDS011;9454;53.516;10.478;2023-03-11T13:06:21;4.80;;;0.93;;
18649;SDS011;9454;53.516;10.478;2023-03-11T13:09:29;5.70;;;0.90;;
18649;SDS011;9454;53.516;10.478;2023-03-11T13:12:37;2.95;;;0.88;;
18649;SDS011;9454;53.516;10.478;2023-03-11T13:15:41;3.70;;;0.63;;
18649;SDS011;9454;53.516;10.478;2023-03-11T13:18:46;2.50;;;0.70;;
18649;SDS011;9454;53.516;10.478;2023-03-11T13:21:52;7.85;;;2.28;;
18649;SDS011;9454;53.516;10.478;2023-03-11T13:24:58;7.22;;;1.08;;
18649;SDS011;9454;53.516;10.478;2023-03-11T13:31:26;1.15;;;0.93;;
18649;SDS011;9454;53.516;10.478;2023-03-11T13:34:35;2.80;;;0.90;;
18649;SDS011;9454;53.516;10.478;2023-03-11T13:37:43;1.83;;;0.70;;
18649;SDS011;9454;53.516;10.478;2023-03-11T13:40:51;2.92;;;0.60;;
18649;SDS011;9454;53.516;10.478;2023-03-11T13:43:55;1.90;;;0.95;;
18649;SDS011;9454;53.516;10.478;2023-03-11T13:47:02;6.78;;;1.13;;
18649;SDS011;9454;53.516;10.478;2023-03-11T13:50:12;3.22;;;0.95;;
18649;SDS011;9454;53.516;10.478;2023-03-11T13:53:18;6.70;;;1.30;;
18649;SDS011;9454;53.516;10.478;2023-03-11T13:56:24;4.63;;;1.17;;
18649;SDS011;9454;53.516;10.478;2023-03-11T13:59:29;1.10;;;0.80;;
18649;SDS011;9454;53.516;10.478;2023-03-11T14:02:33;2.33;;;1.13;;
18649;SDS011;9454;53.516;10.478;2023-03-11T14:05:41;2.10;;;1.10;;
18649;SDS011;9454;53.516;10.478;2023-03-11T14:08:51;2.97;;;1.15;;
18649;SDS011;9454;53.516;10.478;2023-03-11T14:12:02;4.63;;;1.25;;
18649;SDS011;9454;53.516;10.478;2023-03-11T14:15:08;4.15;;;1.23;;
18649;SDS011;9454;53.516;10.478;2023-03-11T14:21:41;2.47;;;1.33;;
18649;SDS011;9454;53.516;10.478;2023-03-11T14:24:46;4.32;;;1.40;;
18649;SDS011;9454;53.516;10.478;2023-03-11T14:27:51;4.28;;;1.52;;
18649;SDS011;9454;53.516;10.478;2023-03-11T14:30:55;14.07;;;1.33;;
18649;SDS011;9454;53.516;10.478;2023-03-11T14:34:00;5.70;;;0.98;;
18649;SDS011;9454;53.516;10.478;2023-03-11T14:37:19;3.25;;;1.45;;
18649;SDS011;9454;53.516;10.478;2023-03-11T14:40:27;2.13;;;0.90;;
18649;SDS011;9454;53.516;10.478;2023-03-11T14:43:32;4.93;;;1.10;;
18649;SDS011;9454;53.516;10.478;2023-03-11T14:46:37;2.10;;;1.20;;
18649;SDS011;9454;53.516;10.478;2023-03-11T14:49:46;2.38;;;1.73;;
18649;SDS011;9454;53.516;10.478;2023-03-11T14:52:53;1.20;;;1.02;;
18649;SDS011;9454;53.516;10.478;2023-03-11T14:55:58;6.10;;;1.42;;
18649;SDS011;9454;53.516;10.478;2023-03-11T14:59:03;1.52;;;0.88;;
18649;SDS011;9454;53.516;10.478;2023-03-11T15:02:26;4.40;;;0.90;;
18649;SDS011;9454;53.516;10.478;2023-03-11T15:05:33;5.85;;;1.15;;
18649;SDS011;9454;53.516;10.478;2023-03-11T15:08:43;6.18;;;1.60;;
18649;SDS011;9454;53.516;10.478;2023-03-11T15:11:48;3.85;;;1.33;;
18649;SDS011;9454;53.516;10.478;2023-03-11T15:14:52;1.45;;;0.95;;
18649;SDS011;9454;53.516;10.478;2023-03-11T15:17:56;5.68;;;1.25;;
18649;SDS011;9454;53.516;10.478;2023-03-11T15:21:05;3.35;;;1.05;;
18649;SDS011;9454;53.516;10.478;2023-03-11T15:24:17;3.03;;;0.90;;
18649;SDS011;9454;53.516;10.478;2023-03-11T15:27:25;2.80;;;0.82;;
18649;SDS011;9454;53.516;10.478;2023-03-11T15:30:29;1.52;;;0.85;;
18649;SDS011;9454;53.516;10.478;2023-03-11T15:33:33;5.15;;;1.10;;
18649;SDS011;9454;53.516;10.478;2023-03-11T15:36:37;1.88;;;0.75;;
18649;SDS011;9454;53.516;10.478;2023-03-11T15:39:45;1.08;;;0.77;;
18649;SDS011;9454;53.516;10.478;2023-03-11T15:43:03;7.35;;;1.17;;
18649;SDS011;9454;53.516;10.478;2023-03-11T15:46:09;4.97;;;1.20;;
18649;SDS011;9454;53.516;10.478;2023-03-11T15:49:13;1.75;;;1.02;;
18649;SDS011;9454;53.516;10.478;2023-03-11T15:52:17;5.30;;;1.10;;
18649;SDS011;9454;53.516;10.478;2023-03-11T15:55:22;5.97;;;1.50;;
18649;SDS011;9454;53.516;10.478;2023-03-11T15:58:26;1.10;;;0.90;;
18649;SDS011;9454;53.516;10.478;2023-03-11T16:01:30;1.92;;;1.02;;
18649;SDS011;9454;53.516;10.478;2023-03-11T16:04:34;7.60;;;1.42;;
18649;SDS011;9454;53.516;10.478;2023-03-11T16:07:40;0.90;;;0.90;;
18649;SDS011;9454;53.516;10.478;2023-03-11T16:11:02;5.57;;;0.90;;
18649;SDS011;9454;53.516;10.478;2023-03-11T16:14:05;2.75;;;0.90;;
18649;SDS011;9454;53.516;10.478;2023-03-11T16:17:09;2.35;;;0.70;;
18649;SDS011;9454;53.516;10.478;2023-03-11T16:20:15;1.92;;;0.60;;
18649;SDS011;9454;53.516;10.478;2023-03-11T16:23:19;4.88;;;0.73;;
18649;SDS011;9454;53.516;10.478;2023-03-11T16:26:24;3.30;;;0.80;;
18649;SDS011;9454;53.516;10.478;2023-03-11T16:29:27;2.13;;;0.63;;
18649;SDS011;9454;53.516;10.478;2023-03-11T16:32:31;6.00;;;0.80;;
18649;SDS011;9454;53.516;10.478;2023-03-11T16:35:34;4.30;;;0.73;;
18649;SDS011;9454;53.516;10.478;2023-03-11T16:38:41;1.25;;;0.50;;
18649;SDS011;9454;53.516;10.478;2023-03-11T16:41:46;0.60;;;0.60;;
18649;SDS011;9454;53.516;10.478;2023-03-11T16:44:50;3.40;;;1.10;;
18649;SDS011;9454;53.516;10.478;2023-03-11T16:47:53;0.73;;;0.73;;
18649;SDS011;9454;53.516;10.478;2023-03-11T16:50:57;3.28;;;1.40;;
18649;SDS011;9454;53.516;10.478;2023-03-11T16:54:01;1.40;;;1.15;;
18649;SDS011;9454;53.516;10.478;2023-03-11T16:57:05;2.75;;;1.13;;
18649;SDS011;9454;53.516;10.478;2023-03-11T17:00:09;2.65;;;1.13;;
18649;SDS011;9454;53.516;10.478;2023-03-11T17:03:14;1.40;;;0.75;;
18649;SDS011;9454;53.516;10.478;2023-03-11T17:06:22;1.85;;;1.38;;
18649;SDS011;9454;53.516;10.478;2023-03-11T17:09:25;2.60;;;1.83;;
18649;SDS011;9454;53.516;10.478;2023-03-11T17:12:30;8.30;;;1.63;;
18649;SDS011;9454;53.516;10.478;2023-03-11T17:15:33;3.63;;;1.42;;
18649;SDS011;9454;53.516;10.478;2023-03-11T17:18:38;4.82;;;1.38;;
18649;SDS011;9454;53.516;10.478;2023-03-11T17:21:41;3.80;;;1.58;;
18649;SDS011;9454;53.516;10.478;2023-03-11T17:24:45;3.42;;;2.20;;
18649;SDS011;9454;53.516;10.478;2023-03-11T17:27:50;6.10;;;1.30;;
18649;SDS011;9454;53.516;10.478;2023-03-11T17:30:53;2.25;;;1.10;;
18649;SDS011;9454;53.516;10.478;2023-03-11T17:33:57;1.33;;;1.00;;
18649;SDS011;9454;53.516;10.478;2023-03-11T17:37:01;5.28;;;1.20;;
18649;SDS011;9454;53.516;10.478;2023-03-11T17:40:05;1.83;;;1.30;;
18649;SDS011;9454;53.516;10.478;2023-03-11T17:43:26;2.22;;;1.48;;
18649;SDS011;9454;53.516;10.478;2023-03-11T17:46:52;1.38;;;1.00;;
18649;SDS011;9454;53.516;10.478;2023-03-11T17:50:24;3.05;;;1.17;;
18649;SDS011;9454;53.516;10.478;2023-03-11T17:53:27;7.15;;;1.52;;
18649;SDS011;9454;53.516;10.478;2023-03-11T17:56:30;2.60;;;1.17;;
18649;SDS011;9454;53.516;10.478;2023-03-11T17:59:35;10.40;;;2.40;;
18649;SDS011;9454;53.516;10.478;2023-03-11T18:02:38;2.67;;;1.48;;
18649;SDS011;9454;53.516;10.478;2023-03-11T18:05:42;5.60;;;1.48;;
18649;SDS011;9454;53.516;10.478;2023-03-11T18:08:55;2.83;;;1.17;;
18649;SDS011;9454;53.516;10.478;2023-03-11T18:11:58;7.85;;;2.10;;
18649;SDS011;9454;53.516;10.478;2023-03-11T18:15:05;2.50;;;1.27;;
18649;SDS011;9454;53.516;10.478;2023-03-11T18:18:14;2.47;;;1.70;;
18649;SDS011;9454;53.516;10.478;2023-03-11T18:21:18;1.67;;;1.45;;
18649;SDS011;9454;53.516;10.478;2023-03-11T18:24:22;4.90;;;1.50;;
18649;SDS011;9454;53.516;10.478;2023-03-11T18:27:26;2.28;;;1.33;;
18649;SDS011;9454;53.516;10.478;2023-03-11T18:30:30;1.25;;;1.00;;
18649;SDS011;9454;53.516;10.478;2023-03-11T18:33:34;2.30;;;1.17;;
18649;SDS011;9454;53.516;10.478;2023-03-11T18:36:38;2.47;;;1.38;;
18649;SDS011;9454;53.516;10.478;2023-03-11T18:39:42;2.25;;;1.75;;
18649;SDS011;9454;53.516;10.478;2023-03-11T18:42:46;8.48;;;1.60;;
18649;SDS011;9454;53.516;10.478;2023-03-11T18:45:50;6.38;;;1.67;;